Detall de PIREP

Printer-friendly versionPDF version

[2013/10/13 15:19:00]
Flight IATA:CT3417
Pilot Number:012
Company ICAO:CAT
Aircraft Type:A320/E
PAX:150
Departing Airport: LATI
Destination Airport: LEBL
Alternate Airport:LEPA
Online: VATSIM
Route:DIRES P92 PAPIZ UP92 BRD UM603 POKAV UZ347 MINKA UQ182 MALAV UM601 BALEN/N0404F290 UM601 VERSO
Flight Level:F350
No Slew and time accel
No pause
Crash detect
Detect pilot in Cockpit between each 30 and 45 minutes
15:19 Zero fuel Weight: 121381 Lbs, Fuel Weight: 22634 Lbs
15:19 VATSIM:LATI 131450Z 32006KT 9999 FEW025 24/18 Q1020 NOSIG
15:19 VATSIM:LEBL 131430Z 11007KT 090V150 9999 FEW025 21/15 Q1018 NOSIG
15:19 VOICE CATALONIAN
15:23 Parking Brakes off
15:29 Take-off
15:29 Take off Weight: 143011 Lbs
15:29 Wind: 316º @ 005 Knots Heading: 353º
15:29 POS N41º 25´ 28´´ E019º 43´ 08´´
15:29 Gear Up: 173 Knots
15:29 Flaps:3 at 173 Knots
15:29 Flaps:2 at 169 Knots
15:29 Flaps:0 at 163 Knots
15:44 Wind:252º@028 Knots Heading: 246º Ground Speed: 438 Knots Altitude 32086 ft
15:45 TOC
15:45 Fuel Weight: 17615 Lb
15:59 Wind:262º@033 Knots Heading: 268º Ground Speed: 427 Knots Altitude 35154 ft
16:14 Wind:251º@053 Knots Heading: 282º Ground Speed: 412 Knots Altitude 37191 ft
16:29 Wind:252º@058 Knots Heading: 264º Ground Speed: 398 Knots Altitude 37185 ft
16:44 Wind:252º@054 Knots Heading: 267º Ground Speed: 402 Knots Altitude 37194 ft
16:59 Wind:253º@057 Knots Heading: 270º Ground Speed: 400 Knots Altitude 37191 ft
17:14 Wind:251º@042 Knots Heading: 275º Ground Speed: 409 Knots Altitude 37168 ft
17:17 TOD
17:17 Fuel Weight: 9536 Lb
17:29 Wind:264º@022 Knots Heading: 276º Ground Speed: 296 Knots Altitude 12949 ft
17:40 Flaps:1 at 194 Knots
17:40 Gear Down: 189 Knots
17:40 Flaps:3 at 192 Knots
17:40 Flaps:4 at 181 Knots
17:40 Flaps:5 at 167 Knots
17:43 TouchDown:Rate -154 ft/min Speed: 133 Knots
17:43 VATSIM:LEBL 131730Z 05005KT 010V080 9999 FEW016 20/16 Q1019 NOSIG
17:43 Land
17:43 Wind:089º@004 Knots
17:43 Heading: 234º
17:43 Flight Duration: 02:14
17:43 Landing Weight: 129062 Lbs
17:43 POS N41º 17´ 55´´ E002º 05´ 01´´
17:45 Parking brakes on
17:45 Block to Block Duration: 02:22
17:45 Final Fuel: 7436 Lbls
17:45 Spent Fuel: 15198 Lbls
17:45 Flight Length: 847 NM
17:45 TOD Land Length: 119 NM

Exportar CSV

Powered by Drupal - Modified by Danger4k